Time;durP1;ratioP1;P1;durP2;ratioP2;P2;SDS_P1;SDS_P2;PMS_P1;PMS_P2;Temp;Humidity;BMP_temperature;BMP_pressure;BME280_temperature;BME280_humidity;BME280_pressure;Samples;Min_cycle;Max_cycle;Signal;HPM_P1;HPM_P2
2023/12/22 00:00:07;;;;;;;2.40;1.13;;;7.30;91.20;;;;;;5052854;28;20195;-80
2023/12/22 00:02:41;;;;;;;1.90;0.80;;;7.40;90.90;;;;;;5052736;28;20648;-80
2023/12/22 00:05:08;;;;;;;2.65;1.20;;;7.40;90.90;;;;;;5052733;28;20183;-80
2023/12/22 00:07:41;;;;;;;3.10;1.05;;;7.50;91.10;;;;;;5052591;28;20188;-80
2023/12/22 00:10:09;;;;;;;2.30;0.90;;;7.50;91.00;;;;;;5052515;28;20187;-80
2023/12/22 00:12:44;;;;;;;1.75;0.80;;;7.50;90.80;;;;;;5052867;28;20545;-81
2023/12/22 00:15:14;;;;;;;2.10;1.00;;;7.50;91.00;;;;;;5052782;28;20557;-79
2023/12/22 00:17:47;;;;;;;2.42;0.88;;;7.60;91.30;;;;;;5052446;28;20219;-79
2023/12/22 00:20:19;;;;;;;3.17;1.45;;;7.60;91.20;;;;;;5056091;28;20190;-79
2023/12/22 00:22:49;;;;;;;2.33;1.08;;;7.70;91.40;;;;;;5055918;28;20595;-80
2023/12/22 00:25:24;;;;;;;2.50;0.90;;;7.70;91.60;;;;;;5056239;28;20198;-79
2023/12/22 00:27:56;;;;;;;2.00;0.85;;;7.80;91.70;;;;;;5056251;28;20189;-79
2023/12/22 00:30:28;;;;;;;1.92;0.80;;;7.80;91.80;;;;;;5056160;28;20230;-79
2023/12/22 00:32:56;;;;;;;2.55;1.00;;;7.80;91.70;;;;;;5055505;28;20316;-79
2023/12/22 00:35:28;;;;;;;2.83;1.20;;;7.80;91.80;;;;;;5055664;28;20253;-79
2023/12/22 00:38:02;;;;;;;2.33;0.80;;;7.90;91.80;;;;;;5056112;28;20267;-79
2023/12/22 00:40:31;;;;;;;1.75;0.70;;;7.90;91.70;;;;;;5055194;28;20266;-79
2023/12/22 00:43:04;;;;;;;1.95;0.75;;;7.90;91.80;;;;;;5055877;28;20191;-79
2023/12/22 00:45:31;;;;;;;1.88;0.80;;;8.00;91.80;;;;;;5055550;28;20183;-79
2023/12/22 00:47:59;;;;;;;3.60;1.10;;;8.00;91.70;;;;;;5055334;28;20712;-80
2023/12/22 00:50:35;;;;;;;3.35;1.23;;;8.00;91.60;;;;;;5055643;28;20218;-80
2023/12/22 00:53:04;;;;;;;2.10;0.93;;;8.00;91.50;;;;;;5055027;28;20214;-80
2023/12/22 00:55:39;;;;;;;2.28;1.08;;;8.00;91.50;;;;;;5055468;28;20568;-80
2023/12/22 00:58:08;;;;;;;3.05;1.17;;;8.00;91.80;;;;;;5055625;28;20240;-81
2023/12/22 01:00:45;;;;;;;4.03;1.05;;;8.00;91.90;;;;;;5055060;28;20248;-80
2023/12/22 01:03:14;;;;;;;2.70;0.80;;;8.00;92.30;;;;;;5055664;28;20580;-80
2023/12/22 01:05:41;;;;;;;2.00;0.80;;;8.00;92.40;;;;;;5055017;28;20253;-80
2023/12/22 01:08:13;;;;;;;4.93;1.60;;;8.00;92.70;;;;;;5054693;28;20658;-81
2023/12/22 01:10:48;;;;;;;2.65;0.80;;;8.00;92.90;;;;;;5054938;28;20179;-81
2023/12/22 01:13:17;;;;;;;3.35;1.02;;;8.00;93.40;;;;;;5055233;28;20186;-80
2023/12/22 01:15:51;;;;;;;2.05;0.98;;;8.10;93.50;;;;;;5054960;28;20201;-80
2023/12/22 01:18:25;;;;;;;2.80;1.05;;;8.00;93.70;;;;;;5055034;28;20584;-80
2023/12/22 01:20:52;;;;;;;2.97;1.00;;;8.10;93.90;;;;;;5054976;28;20191;-80
2023/12/22 01:23:27;;;;;;;2.55;0.95;;;8.10;93.90;;;;;;5054670;28;20186;-81
2023/12/22 01:26:03;;;;;;;1.95;0.75;;;8.20;93.70;;;;;;5055195;28;20269;-80
2023/12/22 01:28:34;;;;;;;3.28;1.05;;;8.10;93.60;;;;;;5055094;28;20217;-81
2023/12/22 01:31:03;;;;;;;3.35;0.80;;;8.10;92.90;;;;;;5054380;28;20199;-81
2023/12/22 01:33:45;;;;;;;2.03;0.73;;;7.90;91.30;;;;;;5054095;28;20187;-81
2023/12/22 01:36:13;;;;;;;1.73;0.68;;;7.80;90.70;;;;;;5054513;28;20269;-81
2023/12/22 01:38:58;;;;;;;4.28;0.80;;;7.60;91.00;;;;;;5054732;28;20262;-81
2023/12/22 01:41:34;;;;;;;2.13;0.82;;;7.40;91.50;;;;;;5054417;28;20266;-81
2023/12/22 01:44:05;;;;;;;1.80;0.70;;;7.30;91.20;;;;;;5054747;28;20218;-81
2023/12/22 01:46:38;;;;;;;1.85;0.70;;;7.30;91.00;;;;;;5053952;28;20258;-80
2023/12/22 01:49:12;;;;;;;1.67;0.65;;;7.10;90.40;;;;;;5054589;28;20598;-80
2023/12/22 01:51:50;;;;;;;1.63;0.60;;;7.10;90.90;;;;;;5054513;28;20586;-80
2023/12/22 01:54:21;;;;;;;1.88;0.70;;;7.10;90.90;;;;;;5054106;28;20207;-80
2023/12/22 01:56:51;;;;;;;1.70;0.70;;;7.10;91.00;;;;;;5054243;28;20618;-80
2023/12/22 01:59:23;;;;;;;2.55;0.60;;;7.00;91.50;;;;;;5054282;28;20233;-80
2023/12/22 02:01:55;;;;;;;1.90;0.70;;;7.10;91.60;;;;;;5054262;28;20214;-81
2023/12/22 02:04:25;;;;;;;1.88;0.73;;;7.00;91.90;;;;;;5054239;28;20611;-80
2023/12/22 02:06:54;;;;;;;2.13;0.70;;;7.10;92.10;;;;;;5053620;28;20234;-80
2023/12/22 02:09:26;;;;;;;2.10;0.70;;;7.10;92.40;;;;;;5053727;28;20195;-80
2023/12/22 02:12:02;;;;;;;7.07;3.50;;;7.10;92.40;;;;;;5054167;28;20271;-80
2023/12/22 02:14:31;;;;;;;1.80;0.80;;;7.10;92.10;;;;;;5053705;28;20218;-80
2023/12/22 02:17:08;;;;;;;2.08;1.10;;;7.10;92.30;;;;;;5053675;28;20282;-80
2023/12/22 02:19:43;;;;;;;3.42;1.02;;;7.20;92.10;;;;;;5053764;28;20244;-80
2023/12/22 02:22:12;;;;;;;5.07;0.77;;;7.20;92.10;;;;;;5053747;28;20198;-80
2023/12/22 02:24:46;;;;;;;2.90;0.90;;;7.20;92.20;;;;;;5053572;28;20201;-80
2023/12/22 02:27:29;;;;;;;3.85;0.95;;;7.20;91.90;;;;;;5053622;28;20211;-80
2023/12/22 02:30:03;;;;;;;2.13;1.00;;;7.20;92.00;;;;;;5053516;28;20214;-80
2023/12/22 02:32:43;;;;;;;2.60;0.80;;;7.20;91.70;;;;;;5053066;28;20569;-81
2023/12/22 02:35:16;;;;;;;2.72;1.25;;;7.30;91.80;;;;;;5053620;28;20656;-80
2023/12/22 02:37:43;;;;;;;2.00;0.93;;;7.30;91.50;;;;;;5053773;28;20187;-80
2023/12/22 02:40:24;;;;;;;3.47;0.93;;;7.30;91.40;;;;;;5053710;28;20187;-80
2023/12/22 02:42:56;;;;;;;2.80;1.08;;;7.40;91.40;;;;;;5052699;28;20182;-80
2023/12/22 02:45:32;;;;;;;4.53;1.15;;;7.40;91.10;;;;;;5052816;28;20211;-80
2023/12/22 02:48:01;;;;;;;2.55;0.98;;;7.50;90.70;;;;;;5052915;28;20226;-81
2023/12/22 02:50:29;;;;;;;3.65;1.00;;;7.50;90.50;;;;;;5053125;28;20195;-81
2023/12/22 02:53:05;;;;;;;4.32;1.30;;;7.60;90.60;;;;;;5053319;28;20277;-81
2023/12/22 02:55:36;;;;;;;3.03;1.05;;;7.60;90.50;;;;;;5053463;28;20280;-80
2023/12/22 02:58:07;;;;;;;5.40;1.42;;;7.60;90.60;;;;;;5053257;28;20692;-80
2023/12/22 03:00:36;;;;;;;3.78;1.10;;;7.60;90.60;;;;;;5053358;28;20179;-80
2023/12/22 03:03:04;;;;;;;5.40;1.17;;;7.60;90.70;;;;;;5053160;28;20237;-80
2023/12/22 03:05:36;;;;;;;3.45;0.70;;;7.60;90.90;;;;;;5053006;28;20195;-80
2023/12/22 03:08:05;;;;;;;3.78;1.48;;;7.60;90.70;;;;;;5053565;28;20179;-81
2023/12/22 03:10:33;;;;;;;2.50;1.00;;;7.60;90.40;;;;;;5053346;28;20614;-80
2023/12/22 03:13:11;;;;;;;2.38;1.17;;;7.50;90.70;;;;;;5053247;28;20260;-82
2023/12/22 03:15:40;;;;;;;3.67;1.27;;;7.50;90.80;;;;;;5053090;28;20616;-80
2023/12/22 03:18:12;;;;;;;2.55;1.00;;;7.40;91.00;;;;;;5052858;28;20233;-80
2023/12/22 03:20:41;;;;;;;6.20;1.20;;;7.40;91.50;;;;;;5053267;28;20269;-80
2023/12/22 03:23:23;;;;;;;2.33;0.90;;;7.30;91.70;;;;;;5053126;28;20200;-80
2023/12/22 03:25:52;;;;;;;2.42;1.10;;;7.40;92.00;;;;;;5033103;28;20226;-80
2023/12/22 03:28:29;;;;;;;3.45;0.85;;;7.40;92.20;;;;;;5033284;28;20241;-80
2023/12/22 03:31:01;;;;;;;2.13;1.05;;;7.40;92.30;;;;;;5033039;28;20179;-80
2023/12/22 03:33:33;;;;;;;2.75;1.00;;;7.40;92.40;;;;;;5045404;28;20265;-80
2023/12/22 03:36:06;;;;;;;2.13;0.90;;;7.40;92.50;;;;;;5053100;28;20599;-80
2023/12/22 03:38:34;;;;;;;2.47;1.00;;;7.40;92.60;;;;;;5052971;28;20625;-80
2023/12/22 03:41:05;;;;;;;2.13;0.88;;;7.40;92.70;;;;;;5053092;28;20231;-82
2023/12/22 03:43:36;;;;;;;1.70;0.73;;;7.50;92.80;;;;;;5052968;28;20222;-81
2023/12/22 03:46:08;;;;;;;4.45;2.10;;;7.50;90.90;;;;;;5052858;28;20245;-81
2023/12/22 03:48:43;;;;;;;2.13;0.80;;;7.40;89.30;;;;;;5053231;28;20252;-81
2023/12/22 03:51:14;;;;;;;2.10;0.80;;;7.10;88.10;;;;;;5052790;28;20183;-81
2023/12/22 03:53:52;;;;;;;1.60;0.60;;;6.80;88.30;;;;;;5054991;28;20182;-80
2023/12/22 03:56:24;;;;;;;2.10;0.80;;;6.60;88.70;;;;;;5056668;28;20260;-80
2023/12/22 03:59:00;;;;;;;1.67;0.60;;;6.60;87.90;;;;;;5056745;28;20218;-80
2023/12/22 04:01:29;;;;;;;1.80;0.75;;;6.50;88.20;;;;;;5056464;28;20265;-80
2023/12/22 04:03:58;;;;;;;1.80;0.70;;;6.40;87.10;;;;;;5056324;28;20237;-80
2023/12/22 04:06:38;;;;;;;1.73;0.70;;;6.40;86.70;;;;;;5056510;28;20191;-80
2023/12/22 04:09:10;;;;;;;2.10;1.02;;;6.40;87.50;;;;;;5056356;28;20183;-81
2023/12/22 04:11:48;;;;;;;2.45;0.75;;;6.40;87.80;;;;;;5056568;28;20278;-80
2023/12/22 04:14:16;;;;;;;1.80;0.80;;;6.40;88.50;;;;;;5055746;28;20201;-80
2023/12/22 04:16:43;;;;;;;2.70;0.88;;;6.50;89.40;;;;;;5056216;28;20596;-80
2023/12/22 04:19:29;;;;;;;5.30;0.80;;;6.50;89.90;;;;;;5055669;28;20203;-80
2023/12/22 04:21:59;;;;;;;3.00;1.00;;;6.60;89.90;;;;;;5056013;28;20266;-80
2023/12/22 04:24:31;;;;;;;4.28;0.90;;;6.60;89.70;;;;;;5055534;28;20277;-81
2023/12/22 04:27:00;;;;;;;3.40;1.15;;;6.60;90.10;;;;;;5056245;28;20190;-81
2023/12/22 04:29:32;;;;;;;2.38;0.90;;;6.70;89.30;;;;;;5055844;28;20197;-81
2023/12/22 04:32:07;;;;;;;5.13;1.10;;;6.80;89.70;;;;;;5055861;28;20214;-83
2023/12/22 04:34:36;;;;;;;2.00;1.20;;;6.80;89.80;;;;;;5055469;28;20278;-81
2023/12/22 04:37:04;;;;;;;5.20;1.00;;;6.80;89.20;;;;;;5055835;28;20269;-80
2023/12/22 04:39:42;;;;;;;4.03;1.20;;;6.90;88.50;;;;;;5055974;28;20190;-81
2023/12/22 04:42:11;;;;;;;5.00;1.00;;;7.00;87.80;;;;;;5055734;28;20633;-81
2023/12/22 04:44:52;;;;;;;6.15;1.15;;;7.00;86.60;;;;;;5055884;28;20198;-81
2023/12/22 04:47:21;;;;;;;7.45;1.45;;;7.10;86.90;;;;;;5055587;28;20227;-80
2023/12/22 04:49:50;;;;;;;3.30;0.90;;;7.10;85.00;;;;;;5055416;28;20198;-81
2023/12/22 04:52:19;;;;;;;2.42;1.10;;;7.10;85.00;;;;;;5055892;28;20183;-80
2023/12/22 04:54:48;;;;;;;5.15;2.00;;;7.10;84.60;;;;;;5055298;28;20199;-81
2023/12/22 04:57:31;;;;;;;2.78;1.05;;;7.10;84.90;;;;;;5055574;28;20281;-81
2023/12/22 05:00:03;;;;;;;1.83;0.70;;;7.20;85.50;;;;;;5055297;28;20222;-80
2023/12/22 05:02:33;;;;;;;5.60;1.10;;;7.20;85.00;;;;;;5055177;28;20179;-80
2023/12/22 05:05:04;;;;;;;3.53;1.10;;;7.20;85.20;;;;;;5054625;28;20231;-80
2023/12/22 05:07:37;;;;;;;2.30;0.90;;;7.20;85.00;;;;;;5055738;28;20225;-80
2023/12/22 05:10:26;;;;;;;2.13;0.80;;;7.10;84.40;;;;;;5055663;28;20202;-80
2023/12/22 05:13:04;;;;;;;4.53;0.98;;;7.10;84.60;;;;;;5055439;28;20187;-80
2023/12/22 05:15:37;;;;;;;1.90;0.90;;;7.10;85.40;;;;;;5055499;28;20207;-80
2023/12/22 05:18:06;;;;;;;2.08;0.90;;;7.10;85.10;;;;;;5054793;28;20270;-81
2023/12/22 05:20:35;;;;;;;2.10;1.00;;;7.10;85.70;;;;;;5055349;28;20226;-80
2023/12/22 05:23:11;;;;;;;3.38;1.13;;;7.10;85.60;;;;;;5054869;28;20218;-80
2023/12/22 05:25:40;;;;;;;2.25;1.00;;;7.10;86.10;;;;;;5054704;28;20282;-80
2023/12/22 05:28:19;;;;;;;1.92;0.70;;;7.10;85.70;;;;;;5055254;28;20198;-80
2023/12/22 05:30:50;;;;;;;2.45;0.98;;;7.20;85.40;;;;;;5054849;28;20676;-80
2023/12/22 05:33:19;;;;;;;1.92;0.70;;;7.20;84.90;;;;;;5054551;28;20175;-80
2023/12/22 05:35:48;;;;;;;2.80;0.90;;;7.20;84.50;;;;;;5054599;28;20218;-80
2023/12/22 05:38:17;;;;;;;2.50;1.02;;;7.20;83.90;;;;;;5054815;28;20602;-80
2023/12/22 05:40:48;;;;;;;2.75;0.98;;;7.20;83.70;;;;;;5054429;28;20688;-80
2023/12/22 05:43:17;;;;;;;2.88;1.02;;;7.20;83.90;;;;;;5054005;28;20213;-80
2023/12/22 05:45:44;;;;;;;5.25;1.40;;;7.30;84.00;;;;;;5054681;28;20551;-80
2023/12/22 05:48:27;;;;;;;2.42;1.20;;;7.30;83.80;;;;;;5054128;28;20313;-80
2023/12/22 05:50:54;;;;;;;2.88;1.13;;;7.40;84.70;;;;;;5054669;28;20179;-79
2023/12/22 05:53:28;;;;;;;2.70;0.90;;;7.50;84.20;;;;;;5054171;28;20290;-80
2023/12/22 05:55:57;;;;;;;2.55;1.10;;;7.50;83.80;;;;;;5050595;28;20236;-80
2023/12/22 05:58:27;;;;;;;2.50;1.10;;;7.50;83.30;;;;;;5052363;28;20566;-78
2023/12/22 06:00:57;;;;;;;4.82;1.00;;;7.50;82.90;;;;;;5053109;28;20269;-79
2023/12/22 06:06:18;;;;;;;2.92;1.27;;;7.50;82.10;;;;;;5042104;28;20202;-80
2023/12/22 06:08:50;;;;;;;3.33;1.20;;;7.50;83.50;;;;;;5049645;28;20270;-78
2023/12/22 06:11:23;;;;;;;3.85;1.33;;;7.50;84.50;;;;;;5052781;28;20222;-78
2023/12/22 06:13:52;;;;;;;6.43;1.65;;;7.50;84.20;;;;;;5052188;28;20175;-78
2023/12/22 06:16:26;;;;;;;4.18;1.27;;;7.50;84.90;;;;;;5052026;28;20218;-79
2023/12/22 06:18:55;;;;;;;5.10;1.30;;;7.50;85.90;;;;;;5052461;28;20663;-78
2023/12/22 06:21:22;;;;;;;6.78;1.35;;;7.50;87.10;;;;;;5053032;28;20528;-80
2023/12/22 06:23:54;;;;;;;2.13;1.05;;;7.40;87.70;;;;;;5052952;28;20291;-81
2023/12/22 06:26:26;;;;;;;3.10;1.30;;;7.40;88.30;;;;;;5052174;28;20245;-81
2023/12/22 06:28:55;;;;;;;5.18;1.27;;;7.40;89.00;;;;;;5052949;28;20241;-80
2023/12/22 06:31:30;;;;;;;2.60;1.10;;;7.30;89.60;;;;;;5052124;28;20218;-80
2023/12/22 06:34:05;;;;;;;3.60;1.08;;;7.30;90.10;;;;;;5052290;28;20214;-81
2023/12/22 06:36:37;;;;;;;8.82;1.58;;;7.30;90.30;;;;;;5052288;28;20298;-81
2023/12/22 06:39:06;;;;;;;6.05;1.05;;;7.30;90.40;;;;;;5052644;28;20179;-80
2023/12/22 06:41:36;;;;;;;1.90;0.82;;;7.20;90.40;;;;;;5052389;28;20279;-80
2023/12/22 06:44:04;;;;;;;2.60;0.90;;;7.20;90.30;;;;;;5052462;28;20186;-80
2023/12/22 06:46:31;;;;;;;4.15;0.93;;;7.20;90.10;;;;;;5052453;28;20210;-81
2023/12/22 06:48:59;;;;;;;2.20;0.80;;;7.10;90.00;;;;;;5052890;28;20179;-81
2023/12/22 06:51:27;;;;;;;3.20;1.00;;;7.10;89.80;;;;;;5051323;28;20278;-80
2023/12/22 06:54:00;;;;;;;2.20;0.90;;;7.10;89.10;;;;;;5052743;28;20189;-80
2023/12/22 06:56:34;;;;;;;14.73;3.03;;;7.10;89.50;;;;;;5052366;28;20210;-80
2023/12/22 06:59:02;;;;;;;5.60;2.30;;;7.00;89.20;;;;;;5049209;28;20213;-81
2023/12/22 07:01:32;;;;;;;5.32;1.13;;;7.10;90.00;;;;;;5051422;28;20194;-80
2023/12/22 07:04:01;;;;;;;3.15;1.00;;;7.10;89.40;;;;;;5051863;28;20194;-81
2023/12/22 07:06:30;;;;;;;3.40;1.25;;;7.10;88.90;;;;;;5052429;28;20199;-80
2023/12/22 07:09:34;;;;;;;2.60;1.40;;;7.10;88.80;;;;;;5052084;28;20565;-80
2023/12/22 07:12:04;;;;;;;3.55;1.20;;;7.10;88.30;;;;;;5044954;28;20273;-80
2023/12/22 07:14:35;;;;;;;3.28;1.55;;;7.10;87.70;;;;;;5051783;28;20230;-80
2023/12/22 07:17:04;;;;;;;5.65;1.10;;;7.20;86.80;;;;;;5051889;28;20250;-81
2023/12/22 07:19:36;;;;;;;5.95;1.30;;;7.20;86.50;;;;;;5051924;28;20354;-80
2023/12/22 07:22:04;;;;;;;3.40;1.80;;;7.20;86.10;;;;;;5051973;28;20660;-80
2023/12/22 07:24:31;;;;;;;2.45;1.33;;;7.20;85.50;;;;;;5051914;28;20241;-81
2023/12/22 07:26:58;;;;;;;3.22;1.33;;;7.20;85.30;;;;;;5051959;28;20218;-80
2023/12/22 07:29:25;;;;;;;2.63;1.33;;;7.20;85.20;;;;;;5054761;28;20260;-80
2023/12/22 07:31:52;;;;;;;7.78;2.10;;;7.20;84.80;;;;;;5055835;28;20237;-82
2023/12/22 07:34:22;;;;;;;15.35;3.53;;;7.20;85.20;;;;;;5055631;28;20214;-80
2023/12/22 07:36:49;;;;;;;4.70;1.58;;;7.20;84.70;;;;;;5055803;28;20564;-80
2023/12/22 07:39:31;;;;;;;4.50;1.15;;;7.30;84.40;;;;;;5056122;28;20261;-80
2023/12/22 07:42:03;;;;;;;6.45;3.28;;;7.20;83.80;;;;;;5055637;28;20622;-80
2023/12/22 07:44:35;;;;;;;4.20;2.00;;;7.30;84.60;;;;;;5053666;28;20265;-81
2023/12/22 07:47:09;;;;;;;3.05;1.40;;;7.30;84.50;;;;;;5054332;28;20302;-80
2023/12/22 07:49:38;;;;;;;6.00;1.00;;;7.30;84.90;;;;;;5055064;28;20179;-80
2023/12/22 07:52:07;;;;;;;3.97;1.75;;;7.30;84.40;;;;;;5055121;28;20195;-80
2023/12/22 07:54:39;;;;;;;3.75;1.42;;;7.40;84.90;;;;;;5056198;28;20283;-80
2023/12/22 07:57:11;;;;;;;5.82;1.23;;;7.40;84.90;;;;;;5055715;28;20210;-80
2023/12/22 07:59:43;;;;;;;3.17;1.17;;;7.40;84.80;;;;;;5056565;28;20217;-80
2023/12/22 08:02:15;;;;;;;3.03;1.00;;;7.40;84.60;;;;;;5056483;28;20264;-81
2023/12/22 08:04:51;;;;;;;4.07;1.17;;;7.40;85.60;;;;;;5056117;28;20186;-80
2023/12/22 08:07:35;;;;;;;2.17;0.80;;;7.40;85.60;;;;;;5056422;28;20190;-80
2023/12/22 08:10:10;;;;;;;2.38;1.00;;;7.40;85.80;;;;;;5056207;28;20660;-81
2023/12/22 08:12:37;;;;;;;2.00;0.75;;;7.50;86.40;;;;;;5056092;28;20659;-80
2023/12/22 08:15:05;;;;;;;2.45;1.00;;;7.50;86.40;;;;;;5056304;28;20206;-81
2023/12/22 08:17:37;;;;;;;5.95;1.10;;;7.50;85.20;;;;;;5055861;28;20214;-79
2023/12/22 08:20:08;;;;;;;1.77;0.73;;;7.50;85.20;;;;;;5056300;28;20523;-80
2023/12/22 08:22:35;;;;;;;3.25;0.80;;;7.50;85.60;;;;;;5056335;28;20262;-79
2023/12/22 08:25:08;;;;;;;3.95;0.98;;;7.50;85.90;;;;;;5055724;28;20653;-79
2023/12/22 08:27:35;;;;;;;2.30;0.90;;;7.50;86.70;;;;;;5056132;28;20237;-79
2023/12/22 08:30:04;;;;;;;3.08;0.93;;;7.50;86.70;;;;;;5055702;28;20290;-79
2023/12/22 08:32:31;;;;;;;1.90;0.80;;;7.50;86.80;;;;;;5055881;28;20305;-79
2023/12/22 08:35:04;;;;;;;3.05;0.70;;;7.50;86.40;;;;;;5055503;28;20714;-79
2023/12/22 08:37:32;;;;;;;2.20;1.30;;;7.50;86.20;;;;;;5055687;28;20783;-79
2023/12/22 08:40:05;;;;;;;2.78;0.95;;;7.50;86.10;;;;;;5054379;28;20661;-80
2023/12/22 08:42:39;;;;;;;2.00;0.80;;;7.50;86.10;;;;;;5055858;28;20179;-80
2023/12/22 08:45:09;;;;;;;2.22;1.05;;;7.50;86.30;;;;;;5055536;28;20188;-79
2023/12/22 08:47:36;;;;;;;2.55;1.20;;;7.60;86.40;;;;;;5055542;28;20313;-80
2023/12/22 08:50:07;;;;;;;5.50;1.55;;;7.50;85.70;;;;;;5055354;28;20226;-80
2023/12/22 08:52:41;;;;;;;4.03;0.90;;;7.60;85.60;;;;;;5055318;28;20183;-80
2023/12/22 08:55:08;;;;;;;1.80;0.70;;;7.60;86.10;;;;;;5055274;28;20270;-80
2023/12/22 08:57:35;;;;;;;1.98;0.80;;;7.60;85.80;;;;;;5055294;28;20262;-80
2023/12/22 09:00:04;;;;;;;7.10;1.45;;;7.60;85.80;;;;;;5055155;28;20285;-80
2023/12/22 09:02:33;;;;;;;2.95;0.93;;;7.60;85.40;;;;;;5055431;28;20195;-80
2023/12/22 09:05:05;;;;;;;3.00;0.90;;;7.60;86.00;;;;;;5055082;28;20282;-80
2023/12/22 09:07:32;;;;;;;2.10;1.00;;;7.60;85.80;;;;;;5054925;28;20183;-80
2023/12/22 09:10:01;;;;;;;4.38;1.20;;;7.60;86.00;;;;;;5055366;28;20187;-80
2023/12/22 09:12:28;;;;;;;3.00;1.15;;;7.60;86.20;;;;;;5054860;28;20195;-80
2023/12/22 09:14:58;;;;;;;2.60;1.30;;;7.70;86.30;;;;;;5055179;28;20186;-80
2023/12/22 09:17:28;;;;;;;2.97;1.23;;;7.70;85.70;;;;;;5054821;28;20203;-80
2023/12/22 09:20:00;;;;;;;5.88;1.75;;;7.70;86.10;;;;;;5055111;28;20286;-79
2023/12/22 09:22:27;;;;;;;6.00;1.55;;;7.70;86.00;;;;;;5054584;28;20191;-80
2023/12/22 09:25:01;;;;;;;3.42;1.75;;;7.70;86.70;;;;;;5054966;28;20285;-79
2023/12/22 09:27:30;;;;;;;5.18;1.10;;;7.70;87.30;;;;;;5055105;28;20186;-80
2023/12/22 09:30:02;;;;;;;8.45;2.53;;;7.70;87.00;;;;;;5054552;28;20191;-80
2023/12/22 09:32:29;;;;;;;2.65;1.40;;;7.80;87.30;;;;;;5055138;28;20187;-79
2023/12/22 09:34:59;;;;;;;3.85;1.33;;;7.80;87.10;;;;;;5054793;28;20195;-80
2023/12/22 09:37:27;;;;;;;6.75;1.55;;;7.80;86.40;;;;;;5054668;28;20222;-79
2023/12/22 09:39:55;;;;;;;3.17;1.25;;;7.80;86.00;;;;;;5054702;28;20543;-80
2023/12/22 09:42:26;;;;;;;6.05;1.52;;;7.80;85.70;;;;;;5054235;28;20652;-79
2023/12/22 09:45:01;;;;;;;7.22;1.55;;;7.90;86.40;;;;;;5054553;28;20210;-79
2023/12/22 09:47:30;;;;;;;5.50;1.65;;;7.90;85.50;;;;;;5054003;28;20310;-79
2023/12/22 09:49:58;;;;;;;4.40;1.10;;;7.90;84.60;;;;;;5054294;28;20214;-80
2023/12/22 09:52:37;;;;;;;4.20;1.30;;;7.90;84.90;;;;;;5054107;28;20190;-80
2023/12/22 09:55:11;;;;;;;2.45;1.05;;;7.90;84.50;;;;;;5054587;28;20175;-79
2023/12/22 09:57:40;;;;;;;2.70;1.23;;;7.90;84.50;;;;;;5053997;28;20289;-79
2023/12/22 10:00:11;;;;;;;2.65;1.05;;;7.90;84.80;;;;;;5054097;28;20270;-79
2023/12/22 10:02:40;;;;;;;2.80;1.30;;;7.90;84.20;;;;;;5054584;28;20218;-79
2023/12/22 10:05:12;;;;;;;3.17;1.45;;;7.90;83.90;;;;;;5053951;28;20186;-80
2023/12/22 10:07:40;;;;;;;3.67;1.52;;;7.90;84.90;;;;;;5053994;28;20183;-80
2023/12/22 10:10:09;;;;;;;3.95;1.30;;;7.90;85.40;;;;;;5053883;28;20278;-79
2023/12/22 10:12:41;;;;;;;4.05;1.58;;;7.90;85.40;;;;;;5054187;28;20193;-79
2023/12/22 10:15:13;;;;;;;4.00;1.20;;;7.90;85.40;;;;;;5054253;28;20215;-79
2023/12/22 10:17:42;;;;;;;2.40;1.30;;;7.90;86.00;;;;;;5054111;28;20249;-79
2023/12/22 10:20:10;;;;;;;5.80;1.50;;;7.90;85.70;;;;;;5054147;28;20226;-79
2023/12/22 10:22:42;;;;;;;7.38;2.38;;;8.00;86.00;;;;;;5053573;28;20277;-79
2023/12/22 10:25:15;;;;;;;4.18;1.27;;;7.90;85.70;;;;;;5053592;28;20186;-79
2023/12/22 10:27:43;;;;;;;5.30;1.60;;;7.90;85.60;;;;;;5053849;28;20226;-79
2023/12/22 10:30:14;;;;;;;4.65;1.60;;;7.90;85.00;;;;;;5053494;28;20226;-80
2023/12/22 10:32:42;;;;;;;2.63;1.23;;;7.90;84.70;;;;;;5054004;28;20179;-80
2023/12/22 10:35:10;;;;;;;4.18;1.50;;;7.90;83.60;;;;;;5053907;28;20198;-80
2023/12/22 10:37:37;;;;;;;6.32;2.38;;;7.90;84.50;;;;;;5053317;28;20305;-80
2023/12/22 10:40:06;;;;;;;5.60;2.05;;;7.90;84.80;;;;;;5053734;28;20195;-79
2023/12/22 10:42:33;;;;;;;3.58;1.10;;;7.90;84.60;;;;;;5053732;28;20545;-79
2023/12/22 10:45:00;;;;;;;3.85;1.38;;;7.90;85.00;;;;;;5053346;28;20202;-79
2023/12/22 10:47:29;;;;;;;6.47;1.85;;;7.90;85.60;;;;;;5053090;28;20748;-78
2023/12/22 10:49:56;;;;;;;3.85;1.23;;;8.00;85.70;;;;;;5053570;28;20194;-79
2023/12/22 10:52:24;;;;;;;5.22;2.05;;;8.00;85.30;;;;;;5053524;28;20282;-79
2023/12/22 10:54:51;;;;;;;3.90;1.10;;;8.00;85.20;;;;;;5053212;28;20657;-79
2023/12/22 10:57:19;;;;;;;3.67;1.17;;;8.00;85.40;;;;;;5053164;28;20673;-79
2023/12/22 10:59:47;;;;;;;4.32;1.55;;;8.00;85.50;;;;;;5053138;28;20199;-79
2023/12/22 11:02:17;;;;;;;4.35;1.20;;;8.00;85.20;;;;;;5052855;28;20282;-79
2023/12/22 11:04:53;;;;;;;4.05;1.65;;;8.00;85.40;;;;;;5053489;28;20186;-79
2023/12/22 11:07:24;;;;;;;4.45;1.30;;;8.00;85.70;;;;;;5053184;28;20277;-79
2023/12/22 11:09:54;;;;;;;5.80;1.20;;;8.00;85.20;;;;;;5053541;28;20217;-79
2023/12/22 11:12:27;;;;;;;7.15;1.70;;;8.00;85.40;;;;;;5053033;28;20202;-80
2023/12/22 11:14:55;;;;;;;3.38;1.15;;;8.00;86.70;;;;;;5053010;28;20218;-79
2023/12/22 11:17:23;;;;;;;5.55;1.50;;;8.00;86.40;;;;;;5053206;28;20314;-79
2023/12/22 11:19:58;;;;;;;5.20;1.58;;;8.00;86.00;;;;;;5052986;28;20190;-79
2023/12/22 11:22:33;;;;;;;7.13;1.70;;;8.00;86.70;;;;;;5053358;28;20213;-79
2023/12/22 11:25:07;;;;;;;4.18;1.55;;;8.00;86.60;;;;;;5052971;28;20182;-79
2023/12/22 11:27:37;;;;;;;4.30;1.35;;;8.10;86.20;;;;;;5053345;28;20601;-79
2023/12/22 11:30:12;;;;;;;3.67;1.30;;;8.10;86.80;;;;;;5053279;28;20191;-79
2023/12/22 11:32:58;;;;;;;3.50;1.50;;;8.10;87.10;;;;;;5053226;28;20178;-79
2023/12/22 11:35:33;;;;;;;2.45;1.50;;;8.10;86.80;;;;;;5052889;28;20206;-79
2023/12/22 11:38:03;;;;;;;3.40;1.08;;;8.00;87.50;;;;;;5052743;28;20252;-79
2023/12/22 11:40:49;;;;;;;3.45;1.35;;;8.00;87.90;;;;;;5053289;28;20195;-79
2023/12/22 11:43:18;;;;;;;5.13;1.27;;;8.00;87.70;;;;;;5052694;28;20265;-79
2023/12/22 11:45:49;;;;;;;5.15;1.55;;;8.00;88.10;;;;;;5053105;28;20226;-79
2023/12/22 11:48:30;;;;;;;8.18;1.40;;;8.00;87.60;;;;;;5053100;28;20258;-79
2023/12/22 11:50:59;;;;;;;2.95;1.40;;;8.00;87.80;;;;;;5052724;28;20646;-79
2023/12/22 11:53:33;;;;;;;5.85;1.38;;;8.00;86.90;;;;;;5052420;28;20653;-79
2023/12/22 11:56:08;;;;;;;6.18;1.88;;;8.00;87.10;;;;;;5052992;28;20266;-80
2023/12/22 11:58:41;;;;;;;5.07;1.92;;;8.00;86.70;;;;;;5052991;28;20293;-79
2023/12/22 12:01:12;;;;;;;4.25;1.60;;;8.00;86.50;;;;;;5053083;28;20215;-79
2023/12/22 12:03:49;;;;;;;3.97;1.25;;;8.00;87.00;;;;;;5053003;28;20698;-79
2023/12/22 12:06:23;;;;;;;4.50;1.42;;;8.00;86.80;;;;;;5052962;28;20610;-79
2023/12/22 12:09:05;;;;;;;5.57;1.85;;;8.00;86.90;;;;;;5053048;28;20215;-79
2023/12/22 12:12:12;;;;;;;3.20;1.58;;;8.00;87.30;;;;;;5052628;28;20621;-79
2023/12/22 12:14:44;;;;;;;8.20;1.80;;;8.00;87.10;;;;;;5049731;28;20194;-79
2023/12/22 12:17:20;;;;;;;3.88;1.25;;;8.00;87.10;;;;;;5055920;28;20210;-79
2023/12/22 12:19:48;;;;;;;3.95;1.17;;;7.90;87.10;;;;;;5056046;28;20261;-79
2023/12/22 12:22:37;;;;;;;2.78;1.23;;;7.90;86.60;;;;;;5056021;28;20198;-78
2023/12/22 12:25:13;;;;;;;6.30;1.40;;;7.90;87.70;;;;;;5056281;28;20233;-79
2023/12/22 12:27:47;;;;;;;3.72;1.55;;;7.80;87.60;;;;;;5055982;28;20705;-79
2023/12/22 12:30:18;;;;;;;7.60;1.60;;;7.90;87.90;;;;;;5056492;28;20190;-79
2023/12/22 12:32:54;;;;;;;2.95;1.27;;;7.90;88.30;;;;;;5055849;28;20186;-79
2023/12/22 12:35:24;;;;;;;13.43;1.40;;;7.80;88.30;;;;;;5056134;28;20178;-79
2023/12/22 12:37:56;;;;;;;2.20;1.27;;;7.80;89.00;;;;;;5056078;28;20203;-79
2023/12/22 12:40:29;;;;;;;4.55;1.25;;;7.80;88.90;;;;;;5056107;28;20222;-79
2023/12/22 12:43:01;;;;;;;5.05;1.38;;;7.80;88.70;;;;;;5055674;28;20266;-79
2023/12/22 12:45:28;;;;;;;2.72;1.10;;;7.80;89.10;;;;;;5055625;28;20626;-79
2023/12/22 12:47:57;;;;;;;3.90;1.58;;;7.80;88.50;;;;;;5055513;28;20222;-79
2023/12/22 12:50:24;;;;;;;4.78;1.17;;;7.90;88.00;;;;;;5055470;28;20191;-79
2023/12/22 12:52:54;;;;;;;6.15;1.33;;;7.80;87.40;;;;;;5055673;28;20201;-79
2023/12/22 12:55:22;;;;;;;5.45;1.40;;;7.80;87.10;;;;;;5055329;28;20190;-79
2023/12/22 12:57:50;;;;;;;2.92;1.40;;;7.80;88.10;;;;;;5055601;28;20215;-79
2023/12/22 13:00:24;;;;;;;3.38;1.70;;;7.80;88.10;;;;;;5055358;28;20194;-79
2023/12/22 13:02:51;;;;;;;2.60;0.85;;;7.80;88.40;;;;;;5055322;28;20233;-78
2023/12/22 13:05:22;;;;;;;5.88;1.58;;;7.70;88.20;;;;;;5055490;28;20273;-78
2023/12/22 13:08:08;;;;;;;4.88;1.20;;;7.80;88.20;;;;;;5055137;28;20226;-78
2023/12/22 13:10:42;;;;;;;3.47;1.20;;;7.80;88.00;;;;;;5055173;28;20221;-79
2023/12/22 13:13:13;;;;;;;2.30;0.80;;;7.80;88.20;;;;;;5055561;28;20189;-78
2023/12/22 13:15:51;;;;;;;5.68;1.45;;;7.70;88.40;;;;;;5055177;28;20704;-78
2023/12/22 13:18:26;;;;;;;1.95;0.80;;;7.70;88.40;;;;;;5055241;28;20219;-79
2023/12/22 13:20:55;;;;;;;2.40;1.13;;;7.60;88.70;;;;;;5054940;28;20214;-78
2023/12/22 13:23:29;;;;;;;3.95;1.40;;;7.60;88.80;;;;;;5054874;28;20277;-79